Time;durP1;ratioP1;P1;durP2;ratioP2;P2;SDS_P1;SDS_P2;PMS_P1;PMS_P2;Temp;Humidity;BMP_temperature;BMP_pressure;BME280_temperature;BME280_humidity;BME280_pressure;Samples;Min_cycle;Max_cycle;Signal;HPM_P1;HPM_P2
2022/07/14 00:00:38;;;;;;;1.95;0.80;;;;;;;22.47;31.56;96001.34;5096721;28;20203;-79
2022/07/14 00:03:03;;;;;;;2.45;0.65;;;;;;;22.46;31.76;96002.38;5096247;28;20228;-79
2022/07/14 00:05:29;;;;;;;2.10;0.98;;;;;;;22.46;31.37;96000.53;5050333;28;20195;-79
2022/07/14 00:07:55;;;;;;;2.05;0.95;;;;;;;22.39;31.65;95997.09;5056267;28;20514;-79
2022/07/14 00:10:20;;;;;;;3.90;1.00;;;;;;;22.39;31.78;95994.44;5063104;28;20185;-79
2022/07/14 00:12:46;;;;;;;5.00;1.00;;;;;;;22.33;31.88;95992.63;5056620;28;20938;-79
2022/07/14 00:15:11;;;;;;;1.65;0.70;;;;;;;22.31;31.91;95992.84;5039971;28;20177;-79
2022/07/14 00:17:36;;;;;;;2.60;1.00;;;;;;;22.30;31.90;95993.06;5057489;28;20172;-79
2022/07/14 00:20:02;;;;;;;2.72;0.93;;;;;;;22.32;32.22;95986.53;5057470;28;20169;-79
2022/07/14 00:22:28;;;;;;;2.13;0.77;;;;;;;22.41;31.76;95988.94;5057070;28;20213;-79
2022/07/14 00:24:53;;;;;;;2.00;0.90;;;;;;;22.38;31.70;95997.31;5055907;28;20250;-79
2022/07/14 00:27:18;;;;;;;1.05;0.88;;;;;;;22.35;31.95;95993.22;5057093;28;20222;-79
2022/07/14 00:29:43;;;;;;;1.33;0.80;;;;;;;22.37;31.79;95993.06;5056795;28;20177;-78
2022/07/14 00:32:09;;;;;;;0.80;0.80;;;;;;;22.36;31.91;95992.25;5042398;28;20561;-78
2022/07/14 00:34:34;;;;;;;0.90;0.90;;;;;;;22.32;31.86;95991.84;5036260;28;20186;-78
2022/07/14 00:37:00;;;;;;;1.10;0.80;;;;;;;22.25;32.60;95983.09;5018462;28;20188;-78
2022/07/14 00:39:26;;;;;;;3.10;0.90;;;;;;;22.15;32.57;95988.03;5036218;28;20170;-79
2022/07/14 00:41:51;;;;;;;3.67;1.00;;;;;;;22.07;32.90;95982.97;5036483;28;20202;-78
2022/07/14 00:44:17;;;;;;;2.80;0.88;;;;;;;21.97;33.20;95979.91;5035503;28;20288;-79
2022/07/14 00:46:42;;;;;;;4.10;1.52;;;;;;;21.88;33.16;95978.53;5019656;28;20260;-79
2022/07/14 00:49:07;;;;;;;2.85;0.80;;;;;;;21.82;33.40;95976.69;5036492;28;20227;-79
2022/07/14 00:51:33;;;;;;;2.17;0.95;;;;;;;21.77;33.76;95974.69;5036129;28;20190;-78
2022/07/14 00:53:59;;;;;;;1.17;0.90;;;;;;;21.73;33.70;95976.09;5035744;28;20799;-79
2022/07/14 00:56:24;;;;;;;0.77;0.75;;;;;;;21.73;33.23;95973.47;5036360;28;20645;-78
2022/07/14 00:58:49;;;;;;;1.00;0.70;;;;;;;21.77;33.34;95977.34;5057245;28;20185;-77
2022/07/14 01:01:15;;;;;;;3.10;0.90;;;;;;;21.73;33.44;95976.09;5078038;28;20205;-77
2022/07/14 01:03:40;;;;;;;1.42;0.90;;;;;;;21.69;33.47;95969.63;5040868;28;20214;-77
2022/07/14 01:06:05;;;;;;;3.53;1.00;;;;;;;21.56;33.69;95983.69;5036712;28;20191;-78
2022/07/14 01:08:31;;;;;;;2.67;1.15;;;;;;;21.61;33.91;95973.28;5035915;28;20641;-78
2022/07/14 01:10:56;;;;;;;1.00;0.77;;;;;;;21.45;34.43;95974.53;5054291;28;20642;-79
2022/07/14 01:13:21;;;;;;;1.35;0.80;;;;;;;21.45;33.91;95976.34;5053482;28;20529;-79
2022/07/14 01:15:47;;;;;;;1.92;1.00;;;;;;;21.46;34.12;95973.50;5018819;28;20188;-79
2022/07/14 01:18:12;;;;;;;0.93;0.80;;;;;;;21.37;34.26;95971.28;5019520;28;20196;-78
2022/07/14 01:20:37;;;;;;;3.33;0.98;;;;;;;21.39;34.15;95972.72;5028455;28;20263;-79
2022/07/14 01:23:03;;;;;;;4.40;1.00;;;;;;;21.40;34.28;95962.97;5053821;28;20335;-79
2022/07/14 01:25:28;;;;;;;1.88;0.80;;;;;;;21.29;34.78;95968.84;5035442;28;20276;-79
2022/07/14 01:27:54;;;;;;;0.95;0.75;;;;;;;21.27;34.38;95965.59;5035943;28;20173;-79
2022/07/14 01:30:20;;;;;;;1.33;0.70;;;;;;;21.27;34.76;95970.88;5052775;28;20177;-78
2022/07/14 01:32:45;;;;;;;1.52;0.90;;;;;;;21.28;34.77;95967.22;5053812;28;20549;-78
2022/07/14 01:35:10;;;;;;;3.65;1.10;;;;;;;21.20;34.61;95966.41;5051467;28;20197;-79
2022/07/14 01:37:36;;;;;;;1.00;0.90;;;;;;;21.20;34.92;95961.13;5035387;28;20205;-79
2022/07/14 01:40:02;;;;;;;1.67;0.90;;;;;;;21.18;35.06;95952.56;5052027;28;20204;-78
2022/07/14 01:42:27;;;;;;;2.35;1.00;;;;;;;21.16;35.24;95953.81;5035137;28;20201;-78
2022/07/14 01:44:53;;;;;;;0.77;0.77;;;;;;;21.13;34.98;95956.84;5035085;28;20182;-78
2022/07/14 01:47:18;;;;;;;0.95;0.85;;;;;;;21.21;34.65;95964.59;5034901;28;20244;-79
2022/07/14 01:49:43;;;;;;;1.98;1.52;;;;;;;21.18;34.85;95955.22;5053206;28;20711;-79
2022/07/14 01:52:09;;;;;;;3.05;0.93;;;;;;;21.12;34.86;95955.25;5052201;28;20194;-78
2022/07/14 01:54:34;;;;;;;2.65;1.02;;;;;;;21.14;35.02;95954.00;5034663;28;20186;-79
2022/07/14 01:57:00;;;;;;;0.95;0.80;;;;;;;21.11;35.10;95949.13;5052979;28;20170;-79
2022/07/14 01:59:25;;;;;;;1.73;1.00;;;;;;;21.13;34.73;95944.47;5035338;28;20215;-79
2022/07/14 02:01:51;;;;;;;3.15;0.90;;;;;;;21.14;35.03;95940.81;5051660;28;20189;-79
2022/07/14 02:04:20;;;;;;;1.08;0.85;;;;;;;21.24;34.37;95936.94;5034946;28;20219;-78
2022/07/14 02:06:52;;;;;;;2.60;0.90;;;;;;;21.27;34.68;95947.94;5034754;28;20232;-78
2022/07/14 02:09:18;;;;;;;1.08;1.00;;;;;;;21.25;34.85;95941.19;5034672;28;20860;-79
2022/07/14 02:14:29;;;;;;;1.80;1.00;;;;;;;21.23;34.75;95935.31;5037391;28;20224;-79
2022/07/14 02:16:54;;;;;;;1.38;1.27;;;;;;;21.21;34.79;95936.34;5034932;28;20176;-79
2022/07/14 02:19:20;;;;;;;2.78;0.90;;;;;;;21.18;35.09;95930.63;5052908;28;20170;-78
2022/07/14 02:21:46;;;;;;;4.53;1.13;;;;;;;21.11;35.16;95935.91;5018415;28;20282;-79
2022/07/14 02:24:12;;;;;;;1.40;0.90;;;;;;;21.02;35.49;95931.84;5033693;28;20205;-78
2022/07/14 02:26:38;;;;;;;1.05;0.93;;;;;;;20.95;35.32;95936.34;5034553;28;20223;-78
2022/07/14 02:29:05;;;;;;;1.00;0.90;;;;;;;20.92;35.47;95932.25;5034521;28;20213;-79
2022/07/14 02:31:31;;;;;;;1.77;0.90;;;;;;;20.88;35.78;95925.78;5050905;28;20217;-78
2022/07/14 02:33:56;;;;;;;1.75;0.90;;;;;;;20.82;35.91;95926.56;5034285;28;20170;-78
2022/07/14 02:36:23;;;;;;;3.78;1.00;;;;;;;20.76;35.87;95929.19;5033397;28;20181;-79
2022/07/14 02:38:48;;;;;;;3.05;1.05;;;;;;;20.69;36.07;95925.75;5034546;28;20602;-79
2022/07/14 02:41:14;;;;;;;1.77;0.90;;;;;;;20.64;36.10;95921.88;5034035;28;20193;-79
2022/07/14 02:43:39;;;;;;;3.65;1.20;;;;;;;20.60;36.19;95919.88;5033696;28;20209;-79
2022/07/14 02:46:04;;;;;;;1.45;1.15;;;;;;;20.55;36.17;95923.09;5034189;28;20235;-79
2022/07/14 02:48:30;;;;;;;3.63;0.98;;;;;;;20.55;36.35;95920.44;5034326;28;20200;-79
2022/07/14 02:51:01;;;;;;;1.80;0.90;;;;;;;20.59;36.40;95921.69;5051131;28;20201;-78
2022/07/14 02:53:27;;;;;;;1.50;1.23;;;;;;;20.57;36.65;95913.13;5034013;28;20178;-79
2022/07/14 02:55:52;;;;;;;1.05;1.00;;;;;;;20.51;36.75;95916.59;5049967;28;20176;-79
2022/07/14 02:58:36;;;;;;;1.48;0.98;;;;;;;20.48;36.63;95919.63;5034068;28;20202;-79
2022/07/14 03:01:06;;;;;;;1.63;1.10;;;;;;;20.48;36.92;95914.34;5034467;28;20216;-79
2022/07/14 03:03:32;;;;;;;2.45;1.13;;;;;;;20.41;37.45;95910.88;5051766;28;20602;-78
2022/07/14 03:05:58;;;;;;;1.85;1.23;;;;;;;20.44;36.83;95910.50;5051378;28;20173;-78
2022/07/14 03:08:23;;;;;;;2.17;0.90;;;;;;;20.40;37.21;95917.13;5033758;28;20224;-78
2022/07/14 03:10:49;;;;;;;3.75;1.10;;;;;;;20.42;36.89;95917.78;5034268;28;20225;-78
2022/07/14 03:13:14;;;;;;;1.70;1.10;;;;;;;20.49;36.78;95913.31;5033904;28;20533;-78
2022/07/14 03:15:40;;;;;;;1.98;0.95;;;;;;;20.53;36.76;95911.94;5050022;28;20216;-78
2022/07/14 03:18:05;;;;;;;1.00;0.90;;;;;;;20.54;36.74;95910.09;5051761;28;20176;-78
2022/07/14 03:20:30;;;;;;;3.55;2.47;;;;;;;20.52;36.88;95910.31;5033923;28;20256;-78
2022/07/14 03:22:56;;;;;;;2.15;1.25;;;;;;;20.70;36.07;95911.56;5051038;28;20658;-78
2022/07/14 03:25:22;;;;;;;1.48;0.90;;;;;;;20.76;35.97;95916.84;5051159;28;20216;-78
2022/07/14 03:27:47;;;;;;;2.13;0.90;;;;;;;20.87;36.06;95913.59;5033846;28;20658;-78
2022/07/14 03:30:13;;;;;;;2.00;1.10;;;;;;;20.98;35.91;95920.09;5050325;28;20178;-78
2022/07/14 03:32:39;;;;;;;6.07;1.10;;;;;;;21.12;35.58;95919.06;5050435;28;20744;-78
2022/07/14 03:35:07;;;;;;;2.33;1.10;;;;;;;21.23;35.43;95924.75;5049745;28;20249;-77
2022/07/14 03:37:32;;;;;;;1.05;0.95;;;;;;;21.38;34.99;95920.06;5038031;28;20174;-77
2022/07/14 03:39:57;;;;;;;1.92;1.10;;;;;;;21.46;34.70;95917.22;5054180;28;20174;-78
2022/07/14 03:42:23;;;;;;;3.22;1.10;;;;;;;21.47;35.02;95909.09;5037329;28;20595;-79
2022/07/14 03:44:48;;;;;;;1.90;0.90;;;;;;;21.60;34.53;95918.00;5053294;28;20189;-77
2022/07/14 03:47:14;;;;;;;1.58;1.10;;;;;;;21.65;34.68;95916.38;5053878;28;20174;-78
2022/07/14 03:49:39;;;;;;;1.58;0.95;;;;;;;21.67;34.36;95916.16;5054113;28;20247;-78
2022/07/14 03:52:06;;;;;;;1.20;1.00;;;;;;;21.69;34.64;95922.06;5036816;28;20744;-77
2022/07/14 03:54:31;;;;;;;1.70;1.00;;;;;;;21.69;34.56;95922.88;5036470;28;20200;-78
2022/07/14 03:56:56;;;;;;;2.72;1.15;;;;;;;21.74;34.61;95923.06;5037079;28;20550;-78
2022/07/14 03:59:21;;;;;;;1.15;1.02;;;;;;;21.76;34.89;95923.66;5036776;28;20258;-79
2022/07/14 04:01:47;;;;;;;2.05;1.05;;;;;;;21.86;34.30;95927.69;5054061;28;20189;-78
2022/07/14 04:04:12;;;;;;;3.08;1.00;;;;;;;22.83;32.95;95934.56;5036784;28;20569;-79
2022/07/14 04:06:37;;;;;;;1.20;1.10;;;;;;;23.92;31.03;95938.50;5054060;28;20174;-79
2022/07/14 04:09:03;;;;;;;2.47;1.00;;;;;;;24.79;29.79;95934.53;5037065;28;20178;-79
2022/07/14 04:11:29;;;;;;;1.38;1.02;;;;;;;25.75;28.20;95934.44;5036800;28;20205;-79
2022/07/14 04:13:54;;;;;;;6.72;1.25;;;;;;;26.11;27.83;95939.44;5036082;28;20193;-80
2022/07/14 04:16:19;;;;;;;2.08;1.20;;;;;;;26.78;26.88;95937.03;5053395;28;20177;-79
2022/07/14 04:18:45;;;;;;;3.42;1.02;;;;;;;26.98;26.86;95941.09;5054534;28;20673;-78
2022/07/14 04:21:10;;;;;;;1.63;0.88;;;;;;;27.21;26.31;95934.81;5053241;28;20189;-79
2022/07/14 04:23:36;;;;;;;2.95;1.15;;;;;;;28.01;25.37;95931.72;5035644;28;20201;-78
2022/07/14 04:26:03;;;;;;;1.00;0.90;;;;;;;27.25;26.09;95939.44;5052688;28;20268;-79
2022/07/14 04:28:28;;;;;;;2.50;0.90;;;;;;;27.20;25.76;95928.66;5054307;28;20180;-79
2022/07/14 04:30:53;;;;;;;2.38;0.90;;;;;;;25.89;27.83;95930.50;5052827;28;20194;-79
2022/07/14 04:33:20;;;;;;;2.35;0.93;;;;;;;26.05;27.95;95936.91;5054183;28;20251;-79
2022/07/14 04:35:45;;;;;;;1.27;1.17;;;;;;;27.64;25.75;95937.59;5035911;28;20800;-79
2022/07/14 04:38:11;;;;;;;1.05;0.85;;;;;;;28.37;24.42;95938.34;5053119;28;20182;-79
2022/07/14 04:40:36;;;;;;;1.75;0.90;;;;;;;29.75;23.08;95936.88;5053470;28;20174;-79
2022/07/14 04:43:01;;;;;;;3.83;1.13;;;;;;;30.87;21.33;95940.03;5036669;28;20220;-78
2022/07/14 04:45:27;;;;;;;3.13;1.50;;;;;;;31.60;20.61;95939.75;5036527;28;20194;-77
2022/07/14 04:47:52;;;;;;;1.33;1.23;;;;;;;32.21;20.30;95945.81;5052991;28;20185;-78
2022/07/14 04:53:01;;;;;;;3.65;1.00;;;;;;;33.16;19.35;95958.22;5053878;28;20177;-78
2022/07/14 04:55:29;;;;;;;0.82;0.82;;;;;;;33.05;19.38;95957.50;5044309;28;20186;-78
2022/07/14 04:57:55;;;;;;;0.82;0.80;;;;;;;33.50;19.36;95960.94;5061698;28;20198;-77
2022/07/14 05:00:20;;;;;;;1.00;1.00;;;;;;;33.91;18.49;95955.97;5078443;28;20166;-78
2022/07/14 05:02:46;;;;;;;0.90;0.73;;;;;;;34.42;18.00;95955.41;5061184;28;20189;-78
2022/07/14 05:05:11;;;;;;;3.58;1.10;;;;;;;34.34;17.89;95961.41;5075835;28;20186;-78
2022/07/14 05:07:36;;;;;;;4.05;1.00;;;;;;;33.54;18.62;95961.97;5052715;28;20173;-78
2022/07/14 05:10:07;;;;;;;1.27;0.90;;;;;;;33.16;18.55;95959.03;5064851;28;20245;-78
2022/07/14 05:12:32;;;;;;;1.10;1.00;;;;;;;33.11;19.00;95961.75;5077981;28;20186;-77
2022/07/14 05:14:57;;;;;;;2.63;1.00;;;;;;;33.11;19.39;95958.25;5077272;28;20186;-77
2022/07/14 05:17:23;;;;;;;1.73;0.88;;;;;;;32.12;19.81;95956.31;5060816;28;20192;-77
2022/07/14 05:19:50;;;;;;;2.65;1.00;;;;;;;32.00;21.00;95945.09;5058690;28;20154;-77
2022/07/14 05:22:15;;;;;;;2.05;0.90;;;;;;;33.06;19.44;95944.84;5069464;28;20782;-77
2022/07/14 05:24:41;;;;;;;1.00;0.80;;;;;;;33.58;19.16;95949.56;5059973;28;20198;-78
2022/07/14 05:27:06;;;;;;;4.38;0.90;;;;;;;33.77;18.56;95936.97;5054778;28;20173;-79
2022/07/14 05:29:31;;;;;;;2.50;0.90;;;;;;;33.71;18.12;95946.19;5036241;28;20646;-78
2022/07/14 05:31:57;;;;;;;1.75;1.00;;;;;;;33.05;19.25;95945.94;5052671;28;20200;-78
2022/07/14 05:34:23;;;;;;;1.73;0.90;;;;;;;33.01;19.23;95944.88;5053005;28;20268;-79
2022/07/14 05:36:48;;;;;;;1.65;1.30;;;;;;;33.28;19.09;95941.72;5036026;28;20174;-78
2022/07/14 05:39:13;;;;;;;3.65;0.82;;;;;;;34.11;18.58;95946.88;5036318;28;20180;-79
2022/07/14 05:41:38;;;;;;;3.25;1.00;;;;;;;34.19;18.38;95937.34;5036083;28;20209;-79
2022/07/14 05:44:04;;;;;;;1.35;0.90;;;;;;;34.01;18.27;95939.69;5051657;28;20205;-79
2022/07/14 05:46:30;;;;;;;3.65;1.10;;;;;;;34.97;17.50;95942.28;5051421;28;20212;-79
2022/07/14 05:48:56;;;;;;;1.52;1.10;;;;;;;35.16;17.94;95943.06;5035338;28;20170;-79
2022/07/14 05:51:22;;;;;;;1.35;0.82;;;;;;;35.36;17.30;95949.22;5035290;28;20193;-78
2022/07/14 05:53:47;;;;;;;3.83;1.00;;;;;;;34.75;17.76;95947.44;5053346;28;20219;-78
2022/07/14 05:56:16;;;;;;;2.80;0.90;;;;;;;34.16;18.65;95946.00;5046802;28;20153;-78
2022/07/14 05:58:42;;;;;;;2.55;0.90;;;;;;;34.95;17.91;95946.38;5095682;28;20157;-78
2022/07/14 06:01:07;;;;;;;2.30;0.90;;;;;;;34.74;17.89;95941.25;5093827;28;20272;-79
2022/07/14 06:03:35;;;;;;;2.05;1.00;;;;;;;34.51;18.56;95937.50;5039060;28;20199;-79
2022/07/14 06:06:04;;;;;;;2.53;0.90;;;;;;;34.60;19.11;95940.34;5071641;28;20181;-78
2022/07/14 06:08:30;;;;;;;4.25;1.40;;;;;;;34.59;18.73;95936.84;5072558;28;20276;-80
2022/07/14 06:10:56;;;;;;;5.30;1.20;;;;;;;35.04;18.10;95941.91;5055952;28;20232;-80
2022/07/14 06:13:26;;;;;;;2.35;1.20;;;;;;;34.46;18.44;95932.19;5055945;28;20188;-81
2022/07/14 06:15:51;;;;;;;3.63;1.45;;;;;;;34.38;18.24;95935.50;5071882;28;20169;-80
2022/07/14 06:18:19;;;;;;;2.63;1.23;;;;;;;35.78;17.36;95937.44;5055972;28;20184;-80
2022/07/14 06:20:45;;;;;;;3.22;1.00;;;;;;;36.80;16.40;95943.53;5053247;28;20189;-80
2022/07/14 06:23:10;;;;;;;2.72;1.13;;;;;;;36.10;16.65;95933.09;5046252;28;20255;-80
2022/07/14 06:25:38;;;;;;;3.10;1.42;;;;;;;35.27;17.45;95934.81;5060869;28;20193;-80
2022/07/14 06:28:05;;;;;;;2.15;1.10;;;;;;;34.47;18.01;95925.72;5056627;28;20196;-80
2022/07/14 06:30:30;;;;;;;4.00;1.00;;;;;;;35.51;16.33;95926.59;5053112;28;20393;-79
2022/07/14 06:32:55;;;;;;;4.38;1.20;;;;;;;34.58;17.13;95932.56;5053861;28;20629;-80
2022/07/14 06:35:21;;;;;;;5.03;1.10;;;;;;;36.55;16.29;95929.44;5034640;28;20185;-79
2022/07/14 06:37:46;;;;;;;3.28;1.10;;;;;;;36.70;15.32;95931.03;5053481;28;20169;-78
2022/07/14 06:40:11;;;;;;;4.03;1.20;;;;;;;36.50;16.05;95924.16;5053474;28;20185;-81
2022/07/14 06:42:37;;;;;;;6.05;1.33;;;;;;;35.42;16.75;95926.47;5053305;28;20974;-81
2022/07/14 06:45:03;;;;;;;4.05;1.10;;;;;;;35.47;17.04;95926.38;5034511;28;20216;-80
2022/07/14 06:47:30;;;;;;;3.20;1.15;;;;;;;35.81;16.48;95926.03;5053254;28;20641;-80
2022/07/14 06:49:56;;;;;;;2.50;1.33;;;;;;;34.83;17.51;95917.09;5036091;28;20184;-81
2022/07/14 06:52:21;;;;;;;9.80;1.10;;;;;;;34.16;18.33;95913.66;5054432;28;20280;-80
2022/07/14 06:54:47;;;;;;;4.78;1.13;;;;;;;34.06;17.75;95914.59;5035955;28;20177;-78
2022/07/14 06:57:12;;;;;;;3.03;1.08;;;;;;;34.98;17.61;95924.19;5035646;28;20181;-81
2022/07/14 06:59:38;;;;;;;3.60;1.00;;;;;;;34.14;17.98;95918.56;5036448;28;20199;-79
2022/07/14 07:02:03;;;;;;;3.33;1.20;;;;;;;33.75;18.35;95919.50;5036223;28;20707;-79
2022/07/14 07:04:28;;;;;;;2.28;0.90;;;;;;;32.95;19.35;95918.03;5019445;28;20180;-79
2022/07/14 07:06:54;;;;;;;1.92;1.00;;;;;;;32.50;19.07;95913.69;5053966;28;20181;-79
2022/07/14 07:09:20;;;;;;;1.58;1.05;;;;;;;32.00;19.24;95907.47;5055951;28;20189;-79
2022/07/14 07:11:49;;;;;;;3.30;1.17;;;;;;;33.04;18.45;95915.53;5058773;28;20697;-80
2022/07/14 07:14:14;;;;;;;5.78;1.05;;;;;;;33.53;17.01;95912.72;5043159;28;20169;-79
2022/07/14 07:16:40;;;;;;;1.40;1.30;;;;;;;33.76;17.77;95904.94;5076488;28;20177;-80
2022/07/14 07:19:05;;;;;;;1.65;1.00;;;;;;;33.37;17.29;95905.88;5073607;28;20181;-79
2022/07/14 07:21:30;;;;;;;4.22;1.10;;;;;;;32.55;18.89;95908.31;5067456;28;20205;-80
2022/07/14 07:23:56;;;;;;;2.20;1.13;;;;;;;32.71;18.00;95900.16;5057346;28;20193;-80
2022/07/14 07:26:24;;;;;;;1.52;1.10;;;;;;;33.18;18.48;95902.25;5074678;28;20193;-80
2022/07/14 07:28:51;;;;;;;2.10;1.20;;;;;;;33.18;17.61;95902.25;5076296;28;20176;-80
2022/07/14 07:31:17;;;;;;;1.95;1.10;;;;;;;32.64;17.74;95905.84;5059372;28;20197;-80
2022/07/14 07:33:46;;;;;;;1.92;0.90;;;;;;;32.43;18.47;95899.00;5059842;28;20191;-79
2022/07/14 07:36:12;;;;;;;1.00;0.90;;;;;;;32.14;19.05;95894.25;5058913;28;20175;-81
2022/07/14 07:38:37;;;;;;;3.13;1.23;;;;;;;32.48;18.30;95891.69;5076652;28;20330;-80
2022/07/14 07:41:03;;;;;;;3.15;1.10;;;;;;;33.01;18.17;95889.19;5059242;28;20280;-80
2022/07/14 07:43:28;;;;;;;3.72;1.00;;;;;;;32.89;18.10;95889.56;5076188;28;20243;-81
2022/07/14 07:45:54;;;;;;;2.63;1.00;;;;;;;33.42;17.66;95889.69;5074878;28;20177;-80
2022/07/14 07:48:20;;;;;;;2.28;0.88;;;;;;;32.52;17.48;95886.56;5077081;28;20177;-80
2022/07/14 07:50:45;;;;;;;1.85;1.00;;;;;;;33.03;17.61;95888.91;5059047;28;20699;-80
2022/07/14 07:53:11;;;;;;;2.38;0.98;;;;;;;32.51;18.25;95882.25;5076277;28;20216;-81
2022/07/14 07:55:36;;;;;;;3.15;1.10;;;;;;;31.71;19.18;95887.66;5059412;28;20181;-81
2022/07/14 07:58:02;;;;;;;3.28;1.00;;;;;;;32.47;18.88;95883.91;5078887;28;20188;-80
2022/07/14 08:00:28;;;;;;;2.15;1.10;;;;;;;32.68;18.84;95888.84;5043534;28;20186;-80
2022/07/14 08:02:54;;;;;;;1.10;0.90;;;;;;;32.92;18.33;95880.91;5059247;28;20209;-80
2022/07/14 08:05:22;;;;;;;5.38;1.25;;;;;;;32.86;17.31;95884.72;5058678;28;20230;-80
2022/07/14 08:07:47;;;;;;;2.85;1.10;;;;;;;32.95;17.87;95875.00;5059319;28;20235;-80
2022/07/14 08:10:13;;;;;;;1.48;0.80;;;;;;;32.80;17.41;95871.59;5041254;28;20621;-81
2022/07/14 08:12:38;;;;;;;0.93;0.82;;;;;;;32.73;17.33;95869.22;5076465;28;20185;-80
2022/07/14 08:15:06;;;;;;;1.90;1.10;;;;;;;33.38;16.95;95871.66;5058724;28;20202;-80
2022/07/14 08:17:31;;;;;;;5.15;1.02;;;;;;;32.57;16.28;95868.50;5075692;28;20181;-81
2022/07/14 08:19:56;;;;;;;1.17;0.80;;;;;;;33.32;16.48;95856.66;5077049;28;20183;-80
2022/07/14 08:22:26;;;;;;;1.10;0.80;;;;;;;33.59;15.84;95858.81;5075088;28;20197;-81
2022/07/14 08:24:52;;;;;;;4.72;1.00;;;;;;;33.65;16.63;95855.75;5058724;28;20533;-80
2022/07/14 08:27:17;;;;;;;3.90;0.85;;;;;;;33.11;15.98;95853.31;5059297;28;20291;-81
2022/07/14 08:29:42;;;;;;;2.83;1.17;;;;;;;32.64;15.79;95854.75;5077129;28;20173;-80
2022/07/14 08:32:08;;;;;;;3.15;0.80;;;;;;;32.03;17.08;95850.50;5075389;28;20196;-80
2022/07/14 08:34:33;;;;;;;2.15;0.88;;;;;;;31.93;16.88;95841.72;5074891;28;20173;-80
2022/07/14 08:36:59;;;;;;;1.73;0.88;;;;;;;31.67;17.19;95840.97;5076675;28;20172;-80
2022/07/14 08:39:25;;;;;;;2.58;0.68;;;;;;;32.43;16.92;95837.19;5058469;28;20169;-80
2022/07/14 08:41:51;;;;;;;1.67;0.73;;;;;;;32.21;16.97;95838.34;5041467;28;20354;-81
2022/07/14 08:44:17;;;;;;;2.28;0.90;;;;;;;32.15;17.40;95828.69;5041367;28;20620;-80
2022/07/14 08:46:42;;;;;;;3.47;0.77;;;;;;;31.73;17.14;95837.19;5075269;28;20180;-81
2022/07/14 08:49:09;;;;;;;1.13;0.85;;;;;;;31.52;16.89;95829.19;5076837;28;20161;-81
2022/07/14 08:51:37;;;;;;;1.77;1.05;;;;;;;32.16;17.00;95832.16;5075167;28;20700;-81
2022/07/14 08:54:03;;;;;;;4.97;1.02;;;;;;;32.34;17.15;95826.22;5074478;28;20556;-79
2022/07/14 08:56:30;;;;;;;1.40;0.90;;;;;;;32.50;16.65;95830.38;5057576;28;20184;-79
2022/07/14 08:58:55;;;;;;;2.83;0.90;;;;;;;32.37;15.93;95831.81;5057757;28;20169;-79
2022/07/14 09:01:21;;;;;;;2.42;0.90;;;;;;;32.61;16.82;95823.88;5058410;28;20196;-78
2022/07/14 09:03:47;;;;;;;2.38;0.98;;;;;;;32.20;16.32;95823.28;5057688;28;20629;-79
2022/07/14 09:06:51;;;;;;;3.10;0.75;;;;;;;32.39;16.09;95818.09;5057874;28;20242;-81
2022/07/14 09:09:27;;;;;;;4.28;0.93;;;;;;;32.17;17.02;95820.38;5062898;28;20174;-80
2022/07/14 09:11:58;;;;;;;2.35;1.10;;;;;;;31.99;16.94;95811.06;5056351;28;20271;-80
2022/07/14 09:14:25;;;;;;;1.45;1.02;;;;;;;32.38;16.72;95814.59;5050970;28;20194;-81
2022/07/14 09:16:52;;;;;;;1.40;0.90;;;;;;;32.17;16.73;95815.81;5059627;28;20174;-82
2022/07/14 09:19:19;;;;;;;3.33;1.02;;;;;;;32.21;16.66;95808.78;5077776;28;20162;-81
2022/07/14 09:21:55;;;;;;;1.80;1.00;;;;;;;32.37;16.97;95807.63;5061349;28;20213;-81
2022/07/14 09:24:22;;;;;;;2.83;1.00;;;;;;;32.49;16.97;95807.28;5060794;28;20212;-81
2022/07/14 09:26:51;;;;;;;4.00;1.00;;;;;;;32.60;17.37;95808.81;5078293;28;20184;-80
2022/07/14 09:29:19;;;;;;;2.08;1.05;;;;;;;32.42;16.97;95801.41;5058461;28;20185;-81
2022/07/14 09:31:45;;;;;;;1.58;0.80;;;;;;;32.47;17.36;95805.97;5077824;28;20174;-81
2022/07/14 09:34:23;;;;;;;2.97;1.10;;;;;;;32.38;17.70;95803.84;5058791;28;20178;-80
2022/07/14 09:36:49;;;;;;;5.03;1.30;;;;;;;32.38;17.98;95801.16;5077348;28;20146;-83
2022/07/14 09:39:15;;;;;;;1.20;1.10;;;;;;;32.81;17.95;95793.31;5078470;28;20166;-81
2022/07/14 09:41:54;;;;;;;4.53;1.38;;;;;;;32.74;18.47;95787.47;5076166;28;20185;-81
2022/07/14 09:44:21;;;;;;;3.00;1.45;;;;;;;32.49;18.40;95803.78;5074751;28;20201;-82
2022/07/14 09:46:49;;;;;;;6.10;1.30;;;;;;;32.39;17.92;95797.41;5044337;28;20209;-81
2022/07/14 09:49:16;;;;;;;2.83;1.20;;;;;;;32.17;18.82;95788.94;5060955;28;20186;-81
2022/07/14 09:51:57;;;;;;;4.22;1.58;;;;;;;32.40;18.93;95790.94;5076335;28;20190;-81
2022/07/14 09:54:43;;;;;;;4.57;1.30;;;;;;;32.41;19.09;95786.38;5077065;28;20161;-81
2022/07/14 09:57:18;;;;;;;3.35;1.20;;;;;;;32.63;18.43;95792.13;5076881;28;20209;-79
2022/07/14 09:59:50;;;;;;;4.10;1.30;;;;;;;32.56;18.29;95796.22;5053390;28;20177;-81
2022/07/14 10:02:30;;;;;;;1.98;1.30;;;;;;;32.31;18.67;95797.19;5077580;28;20185;-81
2022/07/14 10:05:02;;;;;;;3.47;1.23;;;;;;;32.58;18.50;95794.84;5059507;28;20184;-82
2022/07/14 10:07:31;;;;;;;2.70;1.40;;;;;;;32.35;18.99;95796.38;5057987;28;20216;-80
2022/07/14 10:10:04;;;;;;;4.65;1.50;;;;;;;32.53;19.49;95786.84;5058887;28;20187;-81
2022/07/14 10:12:30;;;;;;;4.50;1.55;;;;;;;32.78;19.16;95793.88;5084067;28;20186;-81
2022/07/14 10:15:00;;;;;;;2.92;1.33;;;;;;;32.95;19.10;95788.94;5067902;28;20204;-81
2022/07/14 10:17:27;;;;;;;5.40;1.92;;;;;;;32.87;19.59;95784.16;5044107;28;20182;-80
2022/07/14 10:19:53;;;;;;;5.38;1.70;;;;;;;33.26;19.43;95783.22;5060033;28;20170;-80
2022/07/14 10:22:18;;;;;;;2.35;1.58;;;;;;;32.66;19.71;95774.63;5076390;28;20189;-80
2022/07/14 10:24:45;;;;;;;2.65;1.45;;;;;;;33.10;19.48;95773.69;5062659;28;20201;-81
2022/07/14 10:27:11;;;;;;;3.42;1.58;;;;;;;32.87;20.24;95776.09;5022440;28;20208;-81
2022/07/14 10:29:37;;;;;;;2.05;1.40;;;;;;;32.94;20.37;95764.97;5056627;28;20653;-81
2022/07/14 10:32:16;;;;;;;2.38;1.55;;;;;;;33.08;19.11;95768.63;5048487;28;20292;-81
2022/07/14 10:34:55;;;;;;;4.07;1.50;;;;;;;33.47;19.78;95759.59;5064770;28;20192;-81
2022/07/14 10:37:35;;;;;;;3.50;1.75;;;;;;;33.52;19.39;95771.13;5057898;28;20199;-81
2022/07/14 10:40:17;;;;;;;3.97;1.42;;;;;;;33.87;19.47;95766.38;5058749;28;20251;-81
2022/07/14 10:43:01;;;;;;;5.05;1.65;;;;;;;33.67;19.51;95761.25;5057129;28;20292;-81
2022/07/14 10:45:27;;;;;;;4.03;1.60;;;;;;;33.67;19.97;95758.56;5061997;28;20180;-80
2022/07/14 10:47:53;;;;;;;3.00;1.65;;;;;;;33.59;19.76;95762.69;5082709;28;20173;-81
2022/07/14 10:50:26;;;;;;;4.30;1.40;;;;;;;33.79;20.37;95761.63;5065214;28;20173;-80
2022/07/14 10:52:54;;;;;;;2.17;1.60;;;;;;;33.90;18.97;95754.22;5064541;28;20722;-81
2022/07/14 10:55:23;;;;;;;3.90;1.40;;;;;;;33.92;19.76;95752.84;5082474;28;20231;-81
2022/07/14 10:58:17;;;;;;;6.40;1.48;;;;;;;33.61;19.68;95747.03;5063964;28;20208;-81
2022/07/14 11:00:47;;;;;;;2.08;1.40;;;;;;;32.95;20.19;95748.56;5081927;28;20263;-80
2022/07/14 11:03:20;;;;;;;7.10;1.60;;;;;;;32.66;20.64;95737.78;5082503;28;20200;-81
2022/07/14 11:06:01;;;;;;;6.18;1.50;;;;;;;32.31;21.80;95741.56;5064828;28;20209;-80
2022/07/14 11:08:26;;;;;;;5.65;1.70;;;;;;;32.31;22.00;95746.94;5075315;28;20327;-81
2022/07/14 11:10:53;;;;;;;5.63;1.45;;;;;;;32.02;21.77;95746.03;5045154;28;20266;-81
2022/07/14 11:13:18;;;;;;;3.28;1.70;;;;;;;31.59;22.39;95740.34;5080889;28;20153;-81
2022/07/14 11:15:57;;;;;;;4.90;1.58;;;;;;;31.98;21.93;95740.44;5074741;28;20199;-81
2022/07/14 11:18:26;;;;;;;4.57;1.92;;;;;;;32.13;21.85;95729.56;5059303;28;20173;-82
2022/07/14 11:20:58;;;;;;;4.75;1.75;;;;;;;32.64;21.00;95739.94;5063747;28;20196;-80
2022/07/14 11:23:32;;;;;;;5.40;1.70;;;;;;;32.72;21.31;95730.47;5033540;28;20232;-81
2022/07/14 11:26:00;;;;;;;3.58;1.40;;;;;;;32.97;19.98;95722.19;5068883;28;20216;-81
2022/07/14 11:28:31;;;;;;;3.58;1.60;;;;;;;32.72;20.31;95719.72;5079440;28;20184;-81
2022/07/14 11:31:21;;;;;;;4.93;1.42;;;;;;;32.91;21.30;95728.69;5092207;28;20232;-81
2022/07/14 11:36:36;;;;;;;5.95;1.73;;;;;;;32.47;21.22;95711.88;5067430;28;20183;-81
2022/07/14 11:39:20;;;;;;;2.30;1.60;;;;;;;32.79;20.52;95714.81;5070554;28;20261;-81
2022/07/14 11:41:49;;;;;;;5.20;1.70;;;;;;;33.13;19.78;95703.16;5055190;28;20235;-82